Time;durP1;ratioP1;P1;durP2;ratioP2;P2;SDS_P1;SDS_P2;PMS_P1;PMS_P2;Temp;Humidity;BMP_temperature;BMP_pressure;BME280_temperature;BME280_humidity;BME280_pressure;Samples;Min_cycle;Max_cycle;Signal;HPM_P1;HPM_P2
2023/10/23 00:01:35;;;;;;;3.83;1.70;;;11.40;99.90;;;;;;4976667;28;20225;-76
2023/10/23 00:04:01;;;;;;;3.73;1.60;;;11.40;99.90;;;;;;4966788;28;20702;-74
2023/10/23 00:06:27;;;;;;;1.87;1.20;;;11.40;99.90;;;;;;4975233;28;20469;-74
2023/10/23 00:08:53;;;;;;;2.07;1.60;;;11.40;99.90;;;;;;4964651;28;20339;-75
2023/10/23 00:11:26;;;;;;;3.30;1.73;;;11.40;99.90;;;;;;4966541;28;20226;-76
2023/10/23 00:13:51;;;;;;;6.43;2.40;;;11.40;99.90;;;;;;4974132;28;20228;-75
2023/10/23 00:16:18;;;;;;;1.67;1.50;;;11.40;99.90;;;;;;4960180;28;20657;-75
2023/10/23 00:18:44;;;;;;;2.10;1.90;;;11.30;99.90;;;;;;4976320;28;20839;-73
2023/10/23 00:21:10;;;;;;;2.80;1.70;;;11.40;99.90;;;;;;4983426;28;20468;-74
2023/10/23 00:23:35;;;;;;;3.03;2.10;;;11.30;99.90;;;;;;4960318;28;20337;-73
2023/10/23 00:26:01;;;;;;;2.07;1.63;;;11.30;99.90;;;;;;4963618;28;20309;-76
2023/10/23 00:28:27;;;;;;;1.77;1.60;;;11.20;99.90;;;;;;4969437;28;20230;-74
2023/10/23 00:30:52;;;;;;;3.33;1.67;;;11.20;99.90;;;;;;4965368;28;20231;-74
2023/10/23 00:33:18;;;;;;;4.17;2.13;;;11.30;99.90;;;;;;4987836;28;20354;-74
2023/10/23 00:35:44;;;;;;;1.63;1.53;;;11.30;99.90;;;;;;4991097;28;20226;-76
2023/10/23 00:38:10;;;;;;;6.60;1.67;;;11.30;99.90;;;;;;4975577;28;20371;-73
2023/10/23 00:40:35;;;;;;;2.50;1.63;;;11.30;99.90;;;;;;4965711;28;20887;-73
2023/10/23 00:43:11;;;;;;;1.43;1.33;;;11.30;99.90;;;;;;4966449;28;20222;-74
2023/10/23 00:46:02;;;;;;;2.63;1.73;;;11.30;99.90;;;;;;4967280;28;20231;-76
2023/10/23 00:48:28;;;;;;;4.27;1.63;;;11.20;99.90;;;;;;4972571;28;20860;-75
2023/10/23 00:50:58;;;;;;;1.60;1.37;;;11.20;99.90;;;;;;4965219;28;20500;-76
2023/10/23 00:53:26;;;;;;;1.70;1.60;;;11.20;99.90;;;;;;4972373;28;20734;-73
2023/10/23 00:55:54;;;;;;;3.07;1.50;;;11.10;99.90;;;;;;4963948;28;20483;-74
2023/10/23 00:58:24;;;;;;;1.60;1.50;;;11.10;99.90;;;;;;4949315;28;20461;-75
2023/10/23 01:00:52;;;;;;;2.23;1.87;;;11.00;99.90;;;;;;4948542;28;20944;-74
2023/10/23 01:03:17;;;;;;;1.87;1.77;;;11.00;99.90;;;;;;4968361;28;20473;-74
2023/10/23 01:05:44;;;;;;;1.90;1.77;;;11.00;99.90;;;;;;4947234;28;20510;-75
2023/10/23 01:08:10;;;;;;;2.50;1.40;;;11.00;99.90;;;;;;4964438;28;20233;-74
2023/10/23 01:10:36;;;;;;;3.57;1.53;;;10.90;99.90;;;;;;4966515;28;20538;-75
2023/10/23 01:13:08;;;;;;;2.30;1.40;;;10.90;99.90;;;;;;4968922;28;20507;-73
2023/10/23 01:15:35;;;;;;;2.33;1.77;;;10.90;99.90;;;;;;4975661;28;20288;-74
2023/10/23 01:18:00;;;;;;;2.07;1.90;;;10.90;99.90;;;;;;4960376;28;20461;-73
2023/10/23 01:20:30;;;;;;;4.17;2.00;;;10.90;99.90;;;;;;4971895;28;20560;-73
2023/10/23 01:22:57;;;;;;;2.33;2.13;;;10.90;99.90;;;;;;4952859;28;20832;-74
2023/10/23 01:25:23;;;;;;;7.87;2.47;;;10.90;99.90;;;;;;4964870;28;20545;-73
2023/10/23 01:27:52;;;;;;;4.17;2.53;;;10.90;99.90;;;;;;4957012;28;20591;-74
2023/10/23 01:30:18;;;;;;;3.33;1.93;;;10.80;99.90;;;;;;4960763;28;20488;-74
2023/10/23 01:32:44;;;;;;;3.17;1.73;;;10.80;99.90;;;;;;4971890;28;20340;-75
2023/10/23 01:35:10;;;;;;;2.43;2.23;;;10.80;99.90;;;;;;4957384;28;21089;-73
2023/10/23 01:37:36;;;;;;;3.60;2.10;;;10.70;99.90;;;;;;4957263;28;20577;-74
2023/10/23 01:40:03;;;;;;;4.33;2.30;;;10.70;99.90;;;;;;4958679;28;20586;-73
2023/10/23 01:42:30;;;;;;;2.23;1.77;;;10.70;99.90;;;;;;4958165;28;20528;-74
2023/10/23 01:44:59;;;;;;;4.90;2.60;;;10.60;99.90;;;;;;4960892;28;20485;-75
2023/10/23 01:47:26;;;;;;;4.40;1.90;;;10.60;99.90;;;;;;4958529;28;20599;-74
2023/10/23 01:49:52;;;;;;;3.90;2.67;;;10.50;99.90;;;;;;4956538;28;20465;-74
2023/10/23 01:52:18;;;;;;;4.33;2.17;;;10.50;99.90;;;;;;4958199;28;20476;-74
2023/10/23 01:54:44;;;;;;;3.87;2.33;;;10.50;99.90;;;;;;4937699;28;20476;-75
2023/10/23 01:57:11;;;;;;;1.70;1.40;;;10.50;99.90;;;;;;4963733;28;20505;-76
2023/10/23 01:59:37;;;;;;;3.70;2.50;;;10.50;99.90;;;;;;4946037;28;20284;-73
2023/10/23 02:02:02;;;;;;;2.77;1.77;;;10.40;99.90;;;;;;4962817;28;20466;-75
2023/10/23 02:04:29;;;;;;;2.03;1.80;;;10.50;99.90;;;;;;4964855;28;20508;-74
2023/10/23 02:06:55;;;;;;;3.87;1.80;;;10.40;99.90;;;;;;4963868;28;20688;-74
2023/10/23 02:09:21;;;;;;;5.57;1.77;;;10.40;99.90;;;;;;4961794;28;20489;-74
2023/10/23 02:11:48;;;;;;;4.80;1.53;;;10.40;99.90;;;;;;4972052;28;20497;-74
2023/10/23 02:14:14;;;;;;;3.77;1.70;;;10.40;99.90;;;;;;4962357;28;20481;-73
2023/10/23 02:16:41;;;;;;;3.50;1.50;;;10.30;99.90;;;;;;4954526;28;20485;-74
2023/10/23 02:19:08;;;;;;;3.13;1.60;;;10.30;99.90;;;;;;4963374;28;20570;-74
2023/10/23 02:21:34;;;;;;;2.33;1.70;;;10.30;99.90;;;;;;4976195;28;20348;-73
2023/10/23 02:24:00;;;;;;;1.37;1.27;;;10.30;99.90;;;;;;4966683;28;20473;-74
2023/10/23 02:26:27;;;;;;;1.33;1.20;;;10.20;99.90;;;;;;4946897;28;20300;-74
2023/10/23 02:28:53;;;;;;;5.57;1.40;;;10.00;99.90;;;;;;4962903;28;20735;-74
2023/10/23 02:31:19;;;;;;;2.20;1.50;;;9.90;99.90;;;;;;4963794;28;20469;-72
2023/10/23 02:33:45;;;;;;;1.17;1.07;;;10.00;99.90;;;;;;4961423;28;20820;-73
2023/10/23 02:36:10;;;;;;;2.10;1.63;;;10.00;99.90;;;;;;4957281;28;20229;-73
2023/10/23 02:38:36;;;;;;;1.83;1.23;;;10.00;99.90;;;;;;4968815;28;20229;-72
2023/10/23 02:41:02;;;;;;;2.40;1.30;;;10.10;99.90;;;;;;4971359;28;20242;-73
2023/10/23 02:43:28;;;;;;;1.70;1.27;;;10.20;99.90;;;;;;4958101;28;20226;-74
2023/10/23 02:45:53;;;;;;;1.97;1.07;;;10.20;99.90;;;;;;4964707;28;20860;-74
2023/10/23 02:48:19;;;;;;;4.40;1.20;;;10.20;99.90;;;;;;4959309;28;20276;-72
2023/10/23 02:50:54;;;;;;;4.47;1.70;;;10.20;99.90;;;;;;4969536;28;20221;-74
2023/10/23 02:53:21;;;;;;;2.00;1.23;;;10.20;99.90;;;;;;4960942;28;20226;-73
2023/10/23 02:55:47;;;;;;;4.90;1.40;;;10.10;99.90;;;;;;4969422;28;20480;-74
2023/10/23 02:58:12;;;;;;;2.30;1.70;;;10.10;99.90;;;;;;4964704;28;20494;-74
2023/10/23 03:00:39;;;;;;;3.10;1.83;;;10.10;99.90;;;;;;4975704;28;20547;-73
2023/10/23 03:03:05;;;;;;;2.00;1.80;;;10.00;99.90;;;;;;4981484;28;20225;-74
2023/10/23 03:05:32;;;;;;;2.33;1.80;;;10.00;99.90;;;;;;4977983;28;20476;-73
2023/10/23 03:07:57;;;;;;;3.57;1.93;;;10.00;99.90;;;;;;4979512;28;20484;-72
2023/10/23 03:10:23;;;;;;;2.10;1.80;;;10.00;99.90;;;;;;4964916;28;20558;-75
2023/10/23 03:12:48;;;;;;;2.67;2.30;;;10.00;99.90;;;;;;4965151;28;20225;-72
2023/10/23 03:15:16;;;;;;;4.17;2.30;;;10.00;99.90;;;;;;4963656;28;20225;-73
2023/10/23 03:17:42;;;;;;;3.40;1.90;;;10.00;99.90;;;;;;4979374;28;20288;-73
2023/10/23 03:20:09;;;;;;;2.10;1.90;;;9.90;99.90;;;;;;4981719;28;20479;-74
2023/10/23 03:22:34;;;;;;;7.30;2.33;;;9.80;99.90;;;;;;4978907;28;20484;-74
2023/10/23 03:25:00;;;;;;;2.53;2.20;;;9.70;99.90;;;;;;4953574;28;20493;-75
2023/10/23 03:27:26;;;;;;;2.17;1.80;;;9.70;99.90;;;;;;4949350;28;20800;-73
2023/10/23 03:29:52;;;;;;;2.07;1.67;;;9.70;99.90;;;;;;4948214;28;20234;-73
2023/10/23 03:32:18;;;;;;;1.63;1.53;;;9.70;99.90;;;;;;4950055;28;20552;-74
2023/10/23 03:34:44;;;;;;;3.13;1.60;;;9.70;99.90;;;;;;4947928;28;20226;-75
2023/10/23 03:37:10;;;;;;;1.30;1.20;;;9.70;99.90;;;;;;4951600;28;20223;-74
2023/10/23 03:39:35;;;;;;;1.80;1.50;;;9.70;99.90;;;;;;4979929;28;20539;-73
2023/10/23 03:42:01;;;;;;;1.70;1.60;;;9.70;99.90;;;;;;4960866;28;20214;-73
2023/10/23 03:44:27;;;;;;;1.20;1.20;;;9.70;99.90;;;;;;4961144;28;20288;-73
2023/10/23 03:46:53;;;;;;;3.77;1.77;;;9.70;99.90;;;;;;4956469;28;21115;-74
2023/10/23 03:49:19;;;;;;;3.80;1.67;;;9.70;99.90;;;;;;4972547;28;20238;-74
2023/10/23 03:51:45;;;;;;;2.30;1.30;;;9.70;99.90;;;;;;4965068;28;20563;-72
2023/10/23 03:54:14;;;;;;;4.20;1.30;;;9.60;99.90;;;;;;4972630;28;20477;-73
2023/10/23 03:56:39;;;;;;;1.40;1.30;;;9.50;99.90;;;;;;4971517;28;20915;-74
2023/10/23 03:59:05;;;;;;;2.93;1.60;;;9.50;99.90;;;;;;4962298;28;20652;-74
2023/10/23 04:01:31;;;;;;;1.63;1.27;;;9.50;99.90;;;;;;4954516;28;20238;-73
2023/10/23 04:03:56;;;;;;;1.60;1.50;;;9.50;99.90;;;;;;4962028;28;20320;-74
2023/10/23 04:06:22;;;;;;;1.03;0.97;;;9.50;99.90;;;;;;4959281;28;20238;-74
2023/10/23 04:08:52;;;;;;;2.43;1.57;;;9.50;99.90;;;;;;4953734;28;20310;-73
2023/10/23 04:11:18;;;;;;;1.80;1.47;;;9.50;99.90;;;;;;4960992;28;20222;-72
2023/10/23 04:13:43;;;;;;;1.23;1.13;;;9.50;99.90;;;;;;4948860;28;20568;-74
2023/10/23 04:16:09;;;;;;;1.87;1.60;;;9.50;99.90;;;;;;4957689;28;20226;-73
2023/10/23 04:18:35;;;;;;;1.70;1.60;;;9.50;99.90;;;;;;4987346;28;20781;-74
2023/10/23 04:21:04;;;;;;;1.50;1.27;;;9.50;99.90;;;;;;4964163;28;20300;-74
2023/10/23 04:23:31;;;;;;;3.60;2.00;;;9.50;99.90;;;;;;4957328;28;20819;-73
2023/10/23 04:25:57;;;;;;;3.43;2.20;;;9.50;99.90;;;;;;4962837;28;20484;-73
2023/10/23 04:28:23;;;;;;;2.70;2.37;;;9.50;99.90;;;;;;4958411;28;20512;-74
2023/10/23 04:30:48;;;;;;;3.90;2.33;;;9.40;99.90;;;;;;4962924;28;20345;-74
2023/10/23 04:33:21;;;;;;;3.83;2.30;;;9.40;99.90;;;;;;4958354;28;20519;-73
2023/10/23 04:35:55;;;;;;;3.43;2.93;;;9.40;99.90;;;;;;4955362;28;20226;-74
2023/10/23 04:38:21;;;;;;;4.23;2.70;;;9.40;99.90;;;;;;4961063;28;21135;-73
2023/10/23 04:40:48;;;;;;;3.33;2.83;;;9.30;99.90;;;;;;4953252;28;20471;-73
2023/10/23 04:43:13;;;;;;;3.53;2.70;;;9.30;99.90;;;;;;4954761;28;20583;-74
2023/10/23 04:45:39;;;;;;;3.03;2.70;;;9.30;99.90;;;;;;4963448;28;20522;-73
2023/10/23 04:48:07;;;;;;;5.90;3.43;;;9.20;99.90;;;;;;4963001;28;20234;-74
2023/10/23 04:50:33;;;;;;;3.43;2.80;;;9.10;99.90;;;;;;4963165;28;20465;-74
2023/10/23 04:52:59;;;;;;;3.33;2.87;;;9.10;99.90;;;;;;4959765;28;20552;-73
2023/10/23 04:55:33;;;;;;;3.77;2.53;;;9.00;99.90;;;;;;4959176;28;20476;-74
2023/10/23 04:57:59;;;;;;;2.97;2.70;;;9.00;99.90;;;;;;4975967;28;20230;-73
2023/10/23 05:00:25;;;;;;;6.80;3.27;;;9.10;99.90;;;;;;4981627;28;20464;-74
2023/10/23 05:02:50;;;;;;;3.33;2.60;;;9.10;99.90;;;;;;4958717;28;20457;-74
2023/10/23 05:05:16;;;;;;;2.97;2.70;;;9.00;99.90;;;;;;4958650;28;20229;-74
2023/10/23 05:07:42;;;;;;;5.30;2.50;;;9.00;99.90;;;;;;4955897;28;20814;-74
2023/10/23 05:10:09;;;;;;;2.60;2.20;;;9.00;99.90;;;;;;4955999;28;20222;-73
2023/10/23 05:12:39;;;;;;;4.20;1.93;;;9.00;99.90;;;;;;4962384;28;20400;-73
2023/10/23 05:15:05;;;;;;;2.50;2.30;;;8.90;99.90;;;;;;4954505;28;20481;-73
2023/10/23 05:17:31;;;;;;;3.30;2.93;;;8.80;99.90;;;;;;4954946;28;20595;-72
2023/10/23 05:19:57;;;;;;;3.77;2.73;;;8.80;99.90;;;;;;4959072;28;20538;-73
2023/10/23 05:22:23;;;;;;;4.27;2.63;;;8.90;99.90;;;;;;4956274;28;20480;-71
2023/10/23 05:24:49;;;;;;;2.97;2.40;;;8.90;99.90;;;;;;4953885;28;20492;-73
2023/10/23 05:27:17;;;;;;;4.23;2.40;;;8.90;99.90;;;;;;4963538;28;20460;-74
2023/10/23 05:29:43;;;;;;;2.73;2.37;;;8.90;99.90;;;;;;4956616;28;20226;-73
2023/10/23 05:32:08;;;;;;;2.57;2.07;;;8.90;99.90;;;;;;4960046;28;20488;-73
2023/10/23 05:34:34;;;;;;;3.67;2.40;;;8.90;99.90;;;;;;4943297;28;20496;-74
2023/10/23 05:37:00;;;;;;;2.50;2.17;;;8.90;99.90;;;;;;4932698;28;20226;-71
2023/10/23 05:39:29;;;;;;;6.80;2.93;;;8.90;99.90;;;;;;4947751;28;20230;-72
2023/10/23 05:41:55;;;;;;;4.73;2.93;;;8.90;99.90;;;;;;4950394;28;20456;-73
2023/10/23 05:44:21;;;;;;;5.93;3.23;;;8.90;99.90;;;;;;4954116;28;20571;-73
2023/10/23 05:46:46;;;;;;;4.03;3.40;;;8.90;99.90;;;;;;4955958;28;20837;-73
2023/10/23 05:49:12;;;;;;;6.30;3.77;;;8.80;99.90;;;;;;4953756;28;20845;-72
2023/10/23 05:51:38;;;;;;;5.30;3.20;;;8.80;99.90;;;;;;4967828;28;20237;-73
2023/10/23 05:54:04;;;;;;;3.83;2.63;;;8.80;99.90;;;;;;4953417;28;20231;-72
2023/10/23 05:56:30;;;;;;;2.90;2.30;;;8.80;99.90;;;;;;4941442;28;20301;-74
2023/10/23 05:58:55;;;;;;;3.80;2.33;;;8.80;99.90;;;;;;4974186;28;20254;-73
2023/10/23 06:01:21;;;;;;;3.90;2.77;;;8.80;99.90;;;;;;4957494;28;20487;-73
2023/10/23 06:03:47;;;;;;;2.93;2.10;;;8.80;99.90;;;;;;4978809;28;20274;-73
2023/10/23 06:06:13;;;;;;;4.40;2.47;;;8.80;99.90;;;;;;4975267;28;20822;-73
2023/10/23 06:08:39;;;;;;;3.57;2.33;;;8.80;99.90;;;;;;4972989;28;20319;-73
2023/10/23 06:11:11;;;;;;;2.50;2.07;;;8.80;99.90;;;;;;4974074;28;20465;-72
2023/10/23 06:13:37;;;;;;;1.97;1.67;;;8.80;99.90;;;;;;4973174;28;20476;-73
2023/10/23 06:16:06;;;;;;;3.23;2.20;;;8.80;99.90;;;;;;4955982;28;21341;-73
2023/10/23 06:18:33;;;;;;;3.43;1.90;;;8.70;99.90;;;;;;4971497;28;20860;-72
2023/10/23 06:21:04;;;;;;;3.70;2.07;;;8.60;99.90;;;;;;4973866;28;20472;-75
2023/10/23 06:23:32;;;;;;;2.20;2.00;;;8.60;99.90;;;;;;4972746;28;20950;-74
2023/10/23 06:25:59;;;;;;;4.00;2.40;;;8.60;99.90;;;;;;4941085;28;20589;-73
2023/10/23 06:28:26;;;;;;;2.27;1.80;;;8.60;99.90;;;;;;4945372;28;20581;-72
2023/10/23 06:30:51;;;;;;;3.13;2.30;;;8.70;99.90;;;;;;4961038;28;20469;-73
2023/10/23 06:33:17;;;;;;;4.20;2.40;;;8.70;99.90;;;;;;4945247;28;20462;-72
2023/10/23 06:35:43;;;;;;;4.17;2.70;;;8.80;99.90;;;;;;4944139;28;20979;-72
2023/10/23 06:38:08;;;;;;;5.77;2.37;;;8.80;99.90;;;;;;4947205;28;20234;-73
2023/10/23 06:40:34;;;;;;;4.87;2.37;;;8.80;99.90;;;;;;4944095;28;20238;-72
2023/10/23 06:43:00;;;;;;;6.03;2.97;;;8.80;99.90;;;;;;4948033;28;20249;-72
2023/10/23 06:45:25;;;;;;;5.10;3.43;;;8.80;99.90;;;;;;4943779;28;20313;-73
2023/10/23 06:47:51;;;;;;;2.70;2.37;;;8.90;99.90;;;;;;4956673;28;20227;-71
2023/10/23 06:50:17;;;;;;;2.70;2.50;;;8.80;99.90;;;;;;4969692;28;20225;-73
2023/10/23 06:52:46;;;;;;;4.87;2.60;;;8.90;99.90;;;;;;4976252;28;20729;-74
2023/10/23 06:55:12;;;;;;;3.40;1.77;;;8.90;99.90;;;;;;4977484;28;20509;-72
2023/10/23 06:57:38;;;;;;;2.03;1.83;;;8.90;99.90;;;;;;4977723;28;21091;-73
2023/10/23 07:00:06;;;;;;;3.17;1.83;;;8.80;99.90;;;;;;4962926;28;20464;-74
2023/10/23 07:02:32;;;;;;;2.33;1.87;;;8.90;99.90;;;;;;4977047;28;20331;-73
2023/10/23 07:04:58;;;;;;;3.20;2.40;;;8.90;99.90;;;;;;4976605;28;20471;-73
2023/10/23 07:07:24;;;;;;;5.67;2.40;;;8.90;99.90;;;;;;4976924;28;20497;-73
2023/10/23 07:09:52;;;;;;;3.40;2.50;;;8.90;99.90;;;;;;4976759;28;20831;-73
2023/10/23 07:12:18;;;;;;;2.40;2.07;;;8.90;99.90;;;;;;4977049;28;20229;-72
2023/10/23 07:14:43;;;;;;;3.03;2.40;;;9.00;99.90;;;;;;4976616;28;20731;-71
2023/10/23 07:17:09;;;;;;;4.30;2.60;;;9.00;99.90;;;;;;4960637;28;20244;-73
2023/10/23 07:19:34;;;;;;;4.83;2.50;;;9.00;99.90;;;;;;4978673;28;20819;-73
2023/10/23 07:22:00;;;;;;;3.93;2.63;;;9.00;99.90;;;;;;4978641;28;20725;-73
2023/10/23 07:24:26;;;;;;;6.10;2.53;;;9.00;99.90;;;;;;4950279;28;20245;-73
2023/10/23 07:26:51;;;;;;;2.93;2.50;;;9.00;99.90;;;;;;4953661;28;20242;-75
2023/10/23 07:29:17;;;;;;;5.13;3.60;;;9.00;99.90;;;;;;4956803;28;20343;-73
2023/10/23 07:31:43;;;;;;;4.60;3.17;;;9.00;99.90;;;;;;4956877;28;20221;-74
2023/10/23 07:34:09;;;;;;;4.40;3.43;;;9.00;99.90;;;;;;4960452;28;20348;-73
2023/10/23 07:36:34;;;;;;;5.70;3.63;;;9.10;99.90;;;;;;4963819;28;20228;-74
2023/10/23 07:39:00;;;;;;;3.50;2.53;;;9.10;99.90;;;;;;4966808;28;20472;-72
2023/10/23 07:41:26;;;;;;;3.93;2.60;;;9.10;99.90;;;;;;4967473;28;20230;-73
2023/10/23 07:43:51;;;;;;;5.07;3.40;;;9.10;99.90;;;;;;4966347;28;20230;-72
2023/10/23 07:46:18;;;;;;;5.30;3.70;;;9.10;99.90;;;;;;4965204;28;20292;-73
2023/10/23 07:48:44;;;;;;;7.23;3.93;;;9.00;99.90;;;;;;4972520;28;20229;-73
2023/10/23 07:51:10;;;;;;;6.00;3.90;;;9.10;99.90;;;;;;4979037;28;20990;-74
2023/10/23 07:53:35;;;;;;;4.97;2.90;;;9.10;99.90;;;;;;4985099;28;20480;-73
2023/10/23 07:56:04;;;;;;;4.73;3.47;;;9.10;99.90;;;;;;4975685;28;20409;-74
2023/10/23 07:58:30;;;;;;;7.40;4.33;;;9.10;99.90;;;;;;4961816;28;20740;-72
2023/10/23 08:01:02;;;;;;;5.03;3.10;;;9.10;99.90;;;;;;4954643;28;20967;-73
2023/10/23 08:03:30;;;;;;;5.20;4.10;;;9.10;99.90;;;;;;4978837;28;20586;-73
2023/10/23 08:05:55;;;;;;;3.17;2.60;;;9.20;99.90;;;;;;4952849;28;20643;-73
2023/10/23 08:08:21;;;;;;;5.10;2.80;;;9.20;99.90;;;;;;4956313;28;20262;-74
2023/10/23 08:10:47;;;;;;;3.60;2.77;;;9.20;99.90;;;;;;4958325;28;20218;-73
2023/10/23 08:13:13;;;;;;;6.20;4.00;;;9.20;99.90;;;;;;4946000;28;20458;-73
2023/10/23 08:15:40;;;;;;;5.63;3.23;;;9.30;99.90;;;;;;4965331;28;20710;-73
2023/10/23 08:18:06;;;;;;;4.10;3.70;;;9.30;99.90;;;;;;4978362;28;20230;-74
2023/10/23 08:20:35;;;;;;;2.17;1.97;;;9.40;99.90;;;;;;4981875;28;20468;-73
2023/10/23 08:23:00;;;;;;;2.50;2.30;;;9.40;99.90;;;;;;4970082;28;20252;-73
2023/10/23 08:25:26;;;;;;;6.90;3.90;;;9.40;99.90;;;;;;4964387;28;21165;-73
2023/10/23 08:27:51;;;;;;;8.23;5.57;;;9.40;99.90;;;;;;4964915;28;20974;-74
2023/10/23 08:30:17;;;;;;;5.57;4.63;;;9.50;99.90;;;;;;4954356;28;20482;-73
2023/10/23 08:32:43;;;;;;;5.60;4.10;;;9.50;99.90;;;;;;4966308;28;20214;-74
2023/10/23 08:35:09;;;;;;;5.13;2.90;;;9.50;99.90;;;;;;4969935;28;20231;-73
2023/10/23 08:37:34;;;;;;;4.57;2.80;;;9.50;99.90;;;;;;4974113;28;20244;-73
2023/10/23 08:40:00;;;;;;;3.77;2.70;;;9.50;99.90;;;;;;4983086;28;20225;-74
2023/10/23 08:42:27;;;;;;;3.70;3.00;;;9.50;99.90;;;;;;4976312;28;20248;-73
2023/10/23 08:44:54;;;;;;;4.10;3.30;;;9.50;99.90;;;;;;4963928;28;20226;-74
2023/10/23 08:47:20;;;;;;;4.23;3.40;;;9.60;99.90;;;;;;4965337;28;20473;-73
2023/10/23 08:49:46;;;;;;;4.97;4.03;;;9.60;99.90;;;;;;4953791;28;20477;-72
2023/10/23 08:52:12;;;;;;;5.20;3.87;;;9.60;99.90;;;;;;4959627;28;20230;-72
2023/10/23 08:54:40;;;;;;;4.33;3.50;;;9.70;99.90;;;;;;4965731;28;20240;-73
2023/10/23 08:57:07;;;;;;;3.10;2.80;;;9.70;99.90;;;;;;4955031;28;20230;-73
2023/10/23 08:59:32;;;;;;;7.63;3.80;;;9.70;99.90;;;;;;4949927;28;20473;-72
2023/10/23 09:01:58;;;;;;;5.20;3.23;;;9.80;99.90;;;;;;4940650;28;20574;-73
2023/10/23 09:04:24;;;;;;;5.97;3.60;;;9.80;99.90;;;;;;4964544;28;20229;-72
2023/10/23 09:06:52;;;;;;;6.00;3.90;;;9.80;99.90;;;;;;4952173;28;20809;-72
2023/10/23 09:09:18;;;;;;;5.30;3.23;;;9.80;99.90;;;;;;4957254;28;20350;-74
2023/10/23 09:11:46;;;;;;;4.23;3.27;;;9.80;99.90;;;;;;4955129;28;20470;-72
2023/10/23 09:14:25;;;;;;;4.07;3.07;;;9.90;99.90;;;;;;4955954;28;20499;-73
2023/10/23 09:16:52;;;;;;;6.73;3.33;;;9.90;99.90;;;;;;4950578;28;20576;-73
2023/10/23 09:19:29;;;;;;;7.20;3.83;;;9.90;99.90;;;;;;4969084;28;20485;-72
2023/10/23 09:21:56;;;;;;;7.10;3.87;;;10.00;99.90;;;;;;4980233;28;20468;-74
2023/10/23 09:24:22;;;;;;;10.50;4.83;;;9.90;99.90;;;;;;4955830;28;20485;-71
2023/10/23 09:26:52;;;;;;;10.00;4.97;;;10.00;99.90;;;;;;4971554;28;20513;-73
2023/10/23 09:29:22;;;;;;;4.77;3.33;;;10.00;99.90;;;;;;4955031;28;21014;-73
2023/10/23 09:31:49;;;;;;;7.10;3.90;;;10.10;99.90;;;;;;4952607;28;20477;-73
2023/10/23 09:34:15;;;;;;;6.67;4.30;;;10.10;99.90;;;;;;4955992;28;20470;-73
2023/10/23 09:36:41;;;;;;;8.73;4.20;;;10.20;99.90;;;;;;4951394;28;20465;-72
2023/10/23 09:39:07;;;;;;;7.87;4.40;;;10.20;99.90;;;;;;4957732;28;20605;-73
2023/10/23 09:41:34;;;;;;;5.73;3.80;;;10.20;99.90;;;;;;4961252;28;20338;-73
2023/10/23 09:44:03;;;;;;;5.80;4.20;;;10.20;99.90;;;;;;4970159;28;20287;-73
2023/10/23 09:46:29;;;;;;;6.20;4.13;;;10.30;99.90;;;;;;4952740;28;20492;-73
2023/10/23 09:48:59;;;;;;;7.57;4.87;;;10.30;99.90;;;;;;4960514;28;20472;-73
2023/10/23 09:51:39;;;;;;;8.07;4.97;;;10.30;99.90;;;;;;4960370;28;20235;-73
2023/10/23 09:54:12;;;;;;;8.77;5.60;;;10.30;99.90;;;;;;4943358;28;20468;-73
2023/10/23 09:56:39;;;;;;;6.97;4.53;;;10.30;99.90;;;;;;4943367;28;20728;-72
2023/10/23 09:59:07;;;;;;;11.50;6.00;;;10.30;99.90;;;;;;4941844;28;20489;-73
2023/10/23 10:01:41;;;;;;;9.37;5.70;;;10.40;99.90;;;;;;4941120;28;20466;-72
2023/10/23 10:04:22;;;;;;;7.80;5.97;;;10.40;99.90;;;;;;4977695;28;20481;-73
2023/10/23 10:06:52;;;;;;;11.37;5.93;;;10.40;99.90;;;;;;4941518;28;20909;-73
2023/10/23 10:09:21;;;;;;;10.13;6.60;;;10.40;99.90;;;;;;4942026;28;20486;-73
2023/10/23 10:11:48;;;;;;;16.67;6.23;;;10.50;99.90;;;;;;4972471;28;20563;-73
2023/10/23 10:14:16;;;;;;;12.30;6.90;;;10.50;99.90;;;;;;4979629;28;20463;-73
2023/10/23 10:16:41;;;;;;;10.20;6.47;;;10.50;99.90;;;;;;4972837;28;20479;-72
2023/10/23 10:19:08;;;;;;;10.30;6.70;;;10.60;99.90;;;;;;4974552;28;20468;-73
2023/10/23 10:21:52;;;;;;;13.77;8.00;;;10.60;99.90;;;;;;4972988;28;20351;-73
2023/10/23 10:24:20;;;;;;;11.40;7.40;;;10.60;99.90;;;;;;4973891;28;20572;-73
2023/10/23 10:26:48;;;;;;;8.90;6.07;;;10.60;99.90;;;;;;4972565;28;20480;-72
2023/10/23 10:29:14;;;;;;;7.43;5.70;;;10.70;99.90;;;;;;4973326;28;20572;-74
2023/10/23 10:32:05;;;;;;;10.93;7.40;;;10.70;99.90;;;;;;4956934;28;20518;-73
2023/10/23 10:34:33;;;;;;;14.30;6.50;;;10.80;99.90;;;;;;4955216;28;20285;-73
2023/10/23 10:36:59;;;;;;;14.83;7.70;;;10.80;99.90;;;;;;4959687;28;20624;-74
2023/10/23 10:39:48;;;;;;;10.33;7.77;;;10.90;99.90;;;;;;4942592;28;20473;-72
2023/10/23 10:42:22;;;;;;;11.03;6.80;;;11.00;99.90;;;;;;4957953;28;20520;-72
2023/10/23 10:44:59;;;;;;;15.40;7.97;;;11.00;99.90;;;;;;4958783;28;20540;-72
2023/10/23 10:47:48;;;;;;;13.90;6.77;;;11.10;99.90;;;;;;4940749;28;20493;-73
2023/10/23 10:50:38;;;;;;;12.77;8.20;;;11.10;99.90;;;;;;4954503;28;20477;-74
2023/10/23 10:53:05;;;;;;;8.97;6.87;;;11.10;99.90;;;;;;4976228;28;20469;-73
2023/10/23 10:55:35;;;;;;;11.87;7.67;;;11.20;99.90;;;;;;4953432;28;20508;-74
2023/10/23 10:58:03;;;;;;;14.67;8.20;;;11.20;99.90;;;;;;4945771;28;20464;-72
2023/10/23 11:00:33;;;;;;;15.40;7.80;;;11.20;99.90;;;;;;4954812;28;20505;-74
2023/10/23 11:02:59;;;;;;;10.40;7.57;;;11.30;99.90;;;;;;4958788;28;20565;-74
2023/10/23 11:05:25;;;;;;;12.97;7.10;;;11.30;99.90;;;;;;4991627;28;20550;-73
2023/10/23 11:07:51;;;;;;;15.13;7.27;;;11.40;99.90;;;;;;4958897;28;20464;-74
2023/10/23 11:10:19;;;;;;;19.07;6.67;;;11.40;99.90;;;;;;4963047;28;20233;-73
2023/10/23 11:12:46;;;;;;;11.00;6.80;;;11.50;99.90;;;;;;4961864;28;20532;-73
2023/10/23 11:15:13;;;;;;;11.17;6.90;;;11.60;99.90;;;;;;4980052;28;20495;-74
2023/10/23 11:17:40;;;;;;;12.43;7.03;;;11.60;99.90;;;;;;4964365;28;20571;-74
2023/10/23 11:20:11;;;;;;;12.37;7.37;;;11.60;99.90;;;;;;4967611;28;21167;-74
2023/10/23 11:22:40;;;;;;;12.50;7.50;;;11.70;99.90;;;;;;4964976;28;20464;-74
2023/10/23 11:25:08;;;;;;;9.10;6.07;;;11.70;99.90;;;;;;4965057;28;20473;-74
2023/10/23 11:27:35;;;;;;;10.20;6.43;;;11.80;99.90;;;;;;4964744;28;20519;-74
2023/10/23 11:30:03;;;;;;;10.23;5.63;;;11.80;99.90;;;;;;4995792;28;21034;-74
2023/10/23 11:32:29;;;;;;;8.57;5.13;;;11.90;99.90;;;;;;4965867;28;20527;-74
2023/10/23 11:35:03;;;;;;;9.60;5.80;;;11.90;99.90;;;;;;4969100;28;21053;-73
2023/10/23 11:37:41;;;;;;;6.47;4.00;;;11.90;99.90;;;;;;4976356;28;20233;-74
2023/10/23 11:40:08;;;;;;;11.13;4.30;;;12.00;99.90;;;;;;4967050;28;20472;-73
2023/10/23 11:42:46;;;;;;;4.47;4.00;;;12.00;99.90;;;;;;4963171;28;21109;-74
2023/10/23 11:45:12;;;;;;;5.13;3.43;;;12.00;99.90;;;;;;4967738;28;20544;-72
2023/10/23 11:47:40;;;;;;;8.30;5.13;;;12.00;99.90;;;;;;4967540;28;20480;-74
2023/10/23 11:50:10;;;;;;;5.13;3.73;;;12.10;99.90;;;;;;4955097;28;20810;-73
2023/10/23 11:52:44;;;;;;;5.70;3.67;;;12.10;99.90;;;;;;4966308;28;20481;-74
2023/10/23 11:55:16;;;;;;;7.37;4.30;;;12.10;99.90;;;;;;4951104;28;20506;-74
2023/10/23 11:57:50;;;;;;;9.80;4.40;;;12.20;99.90;;;;;;4980157;28;20470;-75
2023/10/23 12:00:17;;;;;;;6.70;4.70;;;12.20;99.90;;;;;;4949348;28;20461;-73
2023/10/23 12:02:44;;;;;;;9.20;4.93;;;12.30;99.90;;;;;;4979566;28;20474;-74
2023/10/23 12:05:12;;;;;;;4.87;3.80;;;12.30;99.90;;;;;;4959678;28;20554;-75
2023/10/23 12:07:52;;;;;;;4.87;3.43;;;12.30;99.90;;;;;;4955202;28;20608;-73
2023/10/23 12:10:19;;;;;;;4.93;3.30;;;12.40;99.90;;;;;;4959373;28;20495;-72
2023/10/23 12:12:46;;;;;;;4.57;3.57;;;12.40;99.90;;;;;;4958774;28;20484;-73
2023/10/23 12:15:13;;;;;;;6.43;4.07;;;12.40;99.90;;;;;;4962762;28;21278;-73
2023/10/23 12:17:40;;;;;;;4.83;2.90;;;12.40;99.90;;;;;;4966206;28;20525;-74
2023/10/23 12:20:07;;;;;;;6.50;3.97;;;12.40;99.90;;;;;;4968161;28;20583;-74
2023/10/23 12:22:37;;;;;;;3.97;3.00;;;12.40;99.90;;;;;;4980740;28;20480;-74
2023/10/23 12:25:04;;;;;;;7.93;3.47;;;12.40;99.90;;;;;;4963137;28;20492;-74
2023/10/23 12:27:32;;;;;;;3.43;2.60;;;12.40;99.90;;;;;;4976484;28;21246;-74
2023/10/23 12:29:58;;;;;;;3.40;1.93;;;12.50;99.90;;;;;;4958558;28;20472;-75
2023/10/23 12:32:27;;;;;;;3.23;2.17;;;12.50;99.90;;;;;;4960094;28;20608;-75
2023/10/23 12:34:59;;;;;;;2.80;2.00;;;12.50;99.90;;;;;;4951052;28;20476;-74
2023/10/23 12:37:32;;;;;;;3.33;2.20;;;12.50;99.90;;;;;;4959088;28;20615;-74
2023/10/23 12:40:00;;;;;;;6.23;2.70;;;12.50;99.90;;;;;;4958630;28;20481;-73
2023/10/23 12:42:27;;;;;;;3.50;2.20;;;12.50;99.90;;;;;;4958384;28;20552;-74
2023/10/23 12:44:54;;;;;;;2.60;2.10;;;12.50;99.90;;;;;;4953436;28;20950;-73
2023/10/23 12:47:20;;;;;;;2.50;2.30;;;12.50;99.90;;;;;;4959563;28;20464;-75
2023/10/23 12:49:45;;;;;;;3.33;2.00;;;12.60;99.90;;;;;;4947471;28;20578;-74
2023/10/23 12:52:12;;;;;;;4.13;2.30;;;12.60;99.90;;;;;;4959494;28;20228;-74